sensor_id;sensor_type;location;lat;lon;timestamp;temperature;humidity
72604;DHT22;60645;56.968;24.196;2022-09-02T09:43:30;28.00;40.60
72604;DHT22;60645;56.968;24.196;2022-09-02T09:45:57;27.40;41.90
72604;DHT22;60645;56.968;24.196;2022-09-02T09:48:25;26.80;42.90
72604;DHT22;60645;56.968;24.196;2022-09-02T09:53:24;26.60;43.60
72604;DHT22;60645;56.968;24.196;2022-09-02T09:58:32;27.10;43.50
72604;DHT22;60645;56.968;24.196;2022-09-02T10:06:55;28.60;41.90
72604;DHT22;60645;56.968;24.196;2022-09-02T10:12:04;32.00;38.40
72604;DHT22;60645;56.968;24.196;2022-09-02T10:14:49;30.80;39.10
72604;DHT22;60645;56.968;24.196;2022-09-02T10:26:31;32.50;37.90
72604;DHT22;60645;56.968;24.196;2022-09-02T10:45:22;29.80;40.10
72604;DHT22;60645;56.968;24.196;2022-09-02T10:48:14;28.90;41.10
72604;DHT22;60645;56.968;24.196;2022-09-02T10:50:50;28.50;41.80
72604;DHT22;60645;56.968;24.196;2022-09-02T10:55:53;27.80;43.20
72604;DHT22;60645;56.968;24.196;2022-09-02T10:58:38;27.50;43.50
72604;DHT22;60645;56.968;24.196;2022-09-02T11:01:07;27.40;43.80
72604;DHT22;60645;56.968;24.196;2022-09-02T11:03:53;27.10;44.20
72604;DHT22;60645;56.968;24.196;2022-09-02T11:06:28;26.90;44.50
72604;DHT22;60645;56.968;24.196;2022-09-02T11:12:06;26.60;44.80
72604;DHT22;60645;56.968;24.196;2022-09-02T11:17:24;26.50;45.00
72604;DHT22;60645;56.968;24.196;2022-09-02T11:26:07;26.10;45.50
72604;DHT22;60645;56.968;24.196;2022-09-02T11:31:11;26.20;45.50
72604;DHT22;60645;56.968;24.196;2022-09-02T11:36:10;26.20;45.50
72604;DHT22;60645;56.968;24.196;2022-09-02T11:39:03;26.10;45.60
72604;DHT22;60645;56.968;24.196;2022-09-02T11:58:38;26.10;45.60
72604;DHT22;60645;56.968;24.196;2022-09-02T12:01:20;25.90;45.90
72604;DHT22;60645;56.968;24.196;2022-09-02T12:03:55;25.70;46.20
72604;DHT22;60645;56.968;24.196;2022-09-02T12:09:48;25.70;46.50
72604;DHT22;60645;56.968;24.196;2022-09-02T12:20:10;25.30;46.60
72604;DHT22;60645;56.968;24.196;2022-09-02T12:22:39;25.40;47.00
72604;DHT22;60645;56.968;24.196;2022-09-02T12:28:21;25.50;46.90
72604;DHT22;60645;56.968;24.196;2022-09-02T12:33:34;25.30;47.10
72604;DHT22;60645;56.968;24.196;2022-09-02T12:36:03;25.20;47.20
72604;DHT22;60645;56.968;24.196;2022-09-02T12:38:41;25.20;47.20
72604;DHT22;60645;56.968;24.196;2022-09-02T12:41:24;25.10;47.30
72604;DHT22;60645;56.968;24.196;2022-09-02T12:49:40;24.80;47.80
72604;DHT22;60645;56.968;24.196;2022-09-02T12:52:10;24.70;47.90
72604;DHT22;60645;56.968;24.196;2022-09-02T12:57:06;24.50;48.40
72604;DHT22;60645;56.968;24.196;2022-09-02T12:59:36;24.30;48.70
72604;DHT22;60645;56.968;24.196;2022-09-02T13:13:13;24.10;49.30
72604;DHT22;60645;56.968;24.196;2022-09-02T13:16:14;24.00;49.40
72604;DHT22;60645;56.968;24.196;2022-09-02T13:31:18;23.80;49.80
72604;DHT22;60645;56.968;24.196;2022-09-02T13:33:44;23.70;50.00
72604;DHT22;60645;56.968;24.196;2022-09-02T13:36:25;23.60;49.90
72604;DHT22;60645;56.968;24.196;2022-09-02T13:38:53;23.50;50.20
72604;DHT22;60645;56.968;24.196;2022-09-02T13:41:31;23.40;50.40
72604;DHT22;60645;56.968;24.196;2022-09-02T13:44:12;23.30;50.70
72604;DHT22;60645;56.968;24.196;2022-09-02T13:49:50;23.10;51.20
72604;DHT22;60645;56.968;24.196;2022-09-02T13:52:19;23.00;51.40
72604;DHT22;60645;56.968;24.196;2022-09-02T13:55:10;22.90;51.60
72604;DHT22;60645;56.968;24.196;2022-09-02T13:57:38;22.80;51.80
72604;DHT22;60645;56.968;24.196;2022-09-02T14:00:13;22.80;52.10
72604;DHT22;60645;56.968;24.196;2022-09-02T14:02:57;22.70;52.10
72604;DHT22;60645;56.968;24.196;2022-09-02T14:05:25;22.70;52.30
72604;DHT22;60645;56.968;24.196;2022-09-02T14:07:55;22.70;52.50
72604;DHT22;60645;56.968;24.196;2022-09-02T14:10:25;22.60;52.40
72604;DHT22;60645;56.968;24.196;2022-09-02T14:12:54;22.60;52.50
72604;DHT22;60645;56.968;24.196;2022-09-02T14:15:27;22.60;52.80
72604;DHT22;60645;56.968;24.196;2022-09-02T14:21:09;22.60;52.60
72604;DHT22;60645;56.968;24.196;2022-09-02T14:23:48;22.60;52.60
72604;DHT22;60645;56.968;24.196;2022-09-02T14:26:35;22.60;52.50
72604;DHT22;60645;56.968;24.196;2022-09-02T14:29:06;22.60;52.90
72604;DHT22;60645;56.968;24.196;2022-09-02T14:31:34;22.50;53.00
72604;DHT22;60645;56.968;24.196;2022-09-02T14:34:01;22.50;52.80
72604;DHT22;60645;56.968;24.196;2022-09-02T14:36:36;22.40;53.30
72604;DHT22;60645;56.968;24.196;2022-09-02T14:39:13;22.30;53.40
72604;DHT22;60645;56.968;24.196;2022-09-02T14:41:46;22.30;53.50
72604;DHT22;60645;56.968;24.196;2022-09-02T14:46:54;22.20;53.50
72604;DHT22;60645;56.968;24.196;2022-09-02T14:49:26;22.20;53.60
72604;DHT22;60645;56.968;24.196;2022-09-02T14:51:59;22.20;53.70
72604;DHT22;60645;56.968;24.196;2022-09-02T14:54:43;22.20;53.80
72604;DHT22;60645;56.968;24.196;2022-09-02T14:59:51;22.10;54.10
72604;DHT22;60645;56.968;24.196;2022-09-02T15:02:31;22.00;54.30
72604;DHT22;60645;56.968;24.196;2022-09-02T15:05:00;22.00;54.20
72604;DHT22;60645;56.968;24.196;2022-09-02T15:07:28;22.00;54.20
72604;DHT22;60645;56.968;24.196;2022-09-02T15:09:55;21.80;54.40
72604;DHT22;60645;56.968;24.196;2022-09-02T15:12:29;21.90;54.40
72604;DHT22;60645;56.968;24.196;2022-09-02T15:14:57;21.90;54.40
72604;DHT22;60645;56.968;24.196;2022-09-02T15:17:25;21.80;54.50
72604;DHT22;60645;56.968;24.196;2022-09-02T15:19:52;21.90;54.40
72604;DHT22;60645;56.968;24.196;2022-09-02T15:22:19;21.80;54.70
72604;DHT22;60645;56.968;24.196;2022-09-02T15:24:46;21.70;54.70
72604;DHT22;60645;56.968;24.196;2022-09-02T15:27:15;21.80;54.80
72604;DHT22;60645;56.968;24.196;2022-09-02T15:29:47;21.70;54.90
72604;DHT22;60645;56.968;24.196;2022-09-02T15:32:14;21.70;55.00
72604;DHT22;60645;56.968;24.196;2022-09-02T15:34:41;21.60;55.10
72604;DHT22;60645;56.968;24.196;2022-09-02T15:37:08;21.60;55.20
72604;DHT22;60645;56.968;24.196;2022-09-02T15:39:38;21.60;55.00
72604;DHT22;60645;56.968;24.196;2022-09-02T15:42:06;21.60;55.20
72604;DHT22;60645;56.968;24.196;2022-09-02T15:44:33;21.50;55.20
72604;DHT22;60645;56.968;24.196;2022-09-02T15:47:00;21.60;55.40
72604;DHT22;60645;56.968;24.196;2022-09-02T15:49:27;21.60;55.40
72604;DHT22;60645;56.968;24.196;2022-09-02T15:51:54;21.60;56.90
72604;DHT22;60645;56.968;24.196;2022-09-02T15:54:22;21.50;57.30
72604;DHT22;60645;56.968;24.196;2022-09-02T15:56:54;21.50;58.20
72604;DHT22;60645;56.968;24.196;2022-09-02T15:59:22;21.50;59.40
72604;DHT22;60645;56.968;24.196;2022-09-02T16:01:51;21.50;60.00
72604;DHT22;60645;56.968;24.196;2022-09-02T16:04:21;21.50;60.20
72604;DHT22;60645;56.968;24.196;2022-09-02T16:06:51;21.40;60.50
72604;DHT22;60645;56.968;24.196;2022-09-02T16:09:18;21.40;60.20
72604;DHT22;60645;56.968;24.196;2022-09-02T16:11:51;21.40;60.20
72604;DHT22;60645;56.968;24.196;2022-09-02T16:14:19;21.40;60.00
72604;DHT22;60645;56.968;24.196;2022-09-02T16:16:48;21.30;60.00
72604;DHT22;60645;56.968;24.196;2022-09-02T16:19:19;21.40;60.00
72604;DHT22;60645;56.968;24.196;2022-09-02T16:21:50;21.30;59.70
72604;DHT22;60645;56.968;24.196;2022-09-02T16:24:17;21.30;59.90
72604;DHT22;60645;56.968;24.196;2022-09-02T16:26:49;21.30;59.60
72604;DHT22;60645;56.968;24.196;2022-09-02T16:29:18;21.30;59.80
72604;DHT22;60645;56.968;24.196;2022-09-02T16:31:46;21.20;59.60
72604;DHT22;60645;56.968;24.196;2022-09-02T16:34:33;21.20;59.80
72604;DHT22;60645;56.968;24.196;2022-09-02T16:37:00;21.10;59.70
72604;DHT22;60645;56.968;24.196;2022-09-02T16:39:27;21.20;59.60
72604;DHT22;60645;56.968;24.196;2022-09-02T16:41:54;21.20;59.70
72604;DHT22;60645;56.968;24.196;2022-09-02T16:44:23;21.20;59.80
72604;DHT22;60645;56.968;24.196;2022-09-02T16:46:51;21.10;59.60
72604;DHT22;60645;56.968;24.196;2022-09-02T16:49:19;21.10;59.20
72604;DHT22;60645;56.968;24.196;2022-09-02T16:51:49;21.10;59.40
72604;DHT22;60645;56.968;24.196;2022-09-02T16:54:25;21.00;59.40
72604;DHT22;60645;56.968;24.196;2022-09-02T16:56:58;21.10;59.30
72604;DHT22;60645;56.968;24.196;2022-09-02T16:59:25;21.10;59.50
72604;DHT22;60645;56.968;24.196;2022-09-02T17:01:53;21.00;59.60
72604;DHT22;60645;56.968;24.196;2022-09-02T17:04:20;21.00;59.50
72604;DHT22;60645;56.968;24.196;2022-09-02T17:06:47;21.00;59.40
72604;DHT22;60645;56.968;24.196;2022-09-02T17:09:14;21.00;59.50
72604;DHT22;60645;56.968;24.196;2022-09-02T17:11:42;21.00;59.60
72604;DHT22;60645;56.968;24.196;2022-09-02T17:14:13;20.90;59.80
72604;DHT22;60645;56.968;24.196;2022-09-02T17:16:44;20.80;60.20
72604;DHT22;60645;56.968;24.196;2022-09-02T17:19:12;20.90;59.90
72604;DHT22;60645;56.968;24.196;2022-09-02T17:21:44;20.90;60.40
72604;DHT22;60645;56.968;24.196;2022-09-02T17:24:13;20.80;60.50
72604;DHT22;60645;56.968;24.196;2022-09-02T17:26:42;20.80;60.40
72604;DHT22;60645;56.968;24.196;2022-09-02T17:29:13;20.80;60.50
72604;DHT22;60645;56.968;24.196;2022-09-02T17:32:04;20.80;60.60
72604;DHT22;60645;56.968;24.196;2022-09-02T17:34:31;20.70;60.60
72604;DHT22;60645;56.968;24.196;2022-09-02T17:36:59;20.70;60.60
72604;DHT22;60645;56.968;24.196;2022-09-02T17:39:26;20.60;60.70
72604;DHT22;60645;56.968;24.196;2022-09-02T17:41:53;20.60;60.50
72604;DHT22;60645;56.968;24.196;2022-09-02T17:44:25;20.50;60.60
72604;DHT22;60645;56.968;24.196;2022-09-02T17:46:54;20.50;60.70
72604;DHT22;60645;56.968;24.196;2022-09-02T17:49:21;20.50;60.70
72604;DHT22;60645;56.968;24.196;2022-09-02T17:51:48;20.50;60.50
72604;DHT22;60645;56.968;24.196;2022-09-02T17:54:16;20.40;60.90
72604;DHT22;60645;56.968;24.196;2022-09-02T18:10:48;20.20;61.20
72604;DHT22;60645;56.968;24.196;2022-09-02T18:13:45;20.20;61.00
72604;DHT22;60645;56.968;24.196;2022-09-02T18:22:07;20.10;61.00
72604;DHT22;60645;56.968;24.196;2022-09-02T18:40:51;19.90;61.20
72604;DHT22;60645;56.968;24.196;2022-09-02T18:43:30;20.00;61.50
72604;DHT22;60645;56.968;24.196;2022-09-02T18:46:01;19.90;61.40
72604;DHT22;60645;56.968;24.196;2022-09-02T18:48:31;19.90;61.60
72604;DHT22;60645;56.968;24.196;2022-09-02T18:53:41;19.90;61.70
72604;DHT22;60645;56.968;24.196;2022-09-02T18:56:11;19.90;61.60
72604;DHT22;60645;56.968;24.196;2022-09-02T18:58:46;19.90;61.70
72604;DHT22;60645;56.968;24.196;2022-09-02T19:03:47;19.80;61.80
72604;DHT22;60645;56.968;24.196;2022-09-02T19:06:19;19.80;61.70
72604;DHT22;60645;56.968;24.196;2022-09-02T19:08:49;19.80;61.60
72604;DHT22;60645;56.968;24.196;2022-09-02T19:11:18;19.80;61.70
72604;DHT22;60645;56.968;24.196;2022-09-02T19:13:52;19.80;61.80
72604;DHT22;60645;56.968;24.196;2022-09-02T19:16:27;19.80;61.80
72604;DHT22;60645;56.968;24.196;2022-09-02T19:18:54;19.70;61.80
72604;DHT22;60645;56.968;24.196;2022-09-02T19:24:01;19.70;61.80
72604;DHT22;60645;56.968;24.196;2022-09-02T19:26:29;19.70;61.80
72604;DHT22;60645;56.968;24.196;2022-09-02T19:28:57;19.70;61.80
72604;DHT22;60645;56.968;24.196;2022-09-02T19:31:27;19.70;61.90
72604;DHT22;60645;56.968;24.196;2022-09-02T19:33:58;19.70;62.00
72604;DHT22;60645;56.968;24.196;2022-09-02T19:36:27;19.70;62.00
72604;DHT22;60645;56.968;24.196;2022-09-02T19:38:57;19.60;62.10
72604;DHT22;60645;56.968;24.196;2022-09-02T19:41:24;19.60;62.00
72604;DHT22;60645;56.968;24.196;2022-09-02T19:43:53;19.60;62.00
72604;DHT22;60645;56.968;24.196;2022-09-02T19:46:21;19.60;62.10
72604;DHT22;60645;56.968;24.196;2022-09-02T19:49:09;19.50;62.20
72604;DHT22;60645;56.968;24.196;2022-09-02T19:51:35;19.50;62.10
72604;DHT22;60645;56.968;24.196;2022-09-02T19:54:02;19.50;62.20
72604;DHT22;60645;56.968;24.196;2022-09-02T19:56:29;19.60;62.10
72604;DHT22;60645;56.968;24.196;2022-09-02T19:58:56;19.60;62.20
